Terminal Aerodrome Forecast
Issued by NWS

Home | Current Version | Previous Version | Graphics & Text | Print | Product List | Glossary On
Versions: 1 2 3 4 5 6 7 8 9 10 11 12 13 14 15 16 17 18 19 20 21 22 23 24 25 26 27 28 29 30 31 32
000
FTUS43 KLOT 260806 AAA
TAFMDW
TAF AMD
KMDW 260806Z 2608/2706 03009KT 5SM BR BKN004
      TEMPO 2609/2612 2SM BR
     FM261600 04013KT P6SM BKN015
     FM270200 07013KT P6SM BKN025 OVC050=

USA.gov is the U.S. government's official web portal to all federal, state and local government web resources and services.